sensor_id;sensor_type;location;lat;lon;timestamp;P1;durP1;ratioP1;P2;durP2;ratioP2
9294;SDS011;4686;44.496;11.324;2023-05-16T00:01:24;7.77;;;6.90;;
9294;SDS011;4686;44.496;11.324;2023-05-16T00:03:54;8.17;;;7.47;;
9294;SDS011;4686;44.496;11.324;2023-05-16T00:06:21;8.03;;;7.33;;
9294;SDS011;4686;44.496;11.324;2023-05-16T00:08:50;10.13;;;7.73;;
9294;SDS011;4686;44.496;11.324;2023-05-16T00:11:17;7.43;;;6.73;;
9294;SDS011;4686;44.496;11.324;2023-05-16T00:13:45;17.67;;;7.90;;
9294;SDS011;4686;44.496;11.324;2023-05-16T00:16:13;18.90;;;7.77;;
9294;SDS011;4686;44.496;11.324;2023-05-16T00:18:40;9.50;;;8.60;;
9294;SDS011;4686;44.496;11.324;2023-05-16T00:21:09;8.47;;;7.77;;
9294;SDS011;4686;44.496;11.324;2023-05-16T00:23:38;8.20;;;7.50;;
9294;SDS011;4686;44.496;11.324;2023-05-16T00:26:07;7.57;;;6.97;;
9294;SDS011;4686;44.496;11.324;2023-05-16T00:28:34;7.60;;;6.90;;
9294;SDS011;4686;44.496;11.324;2023-05-16T00:31:01;14.37;;;10.10;;
9294;SDS011;4686;44.496;11.324;2023-05-16T00:33:29;8.60;;;7.90;;
9294;SDS011;4686;44.496;11.324;2023-05-16T00:35:56;10.57;;;9.67;;
9294;SDS011;4686;44.496;11.324;2023-05-16T00:38:23;11.50;;;8.50;;
9294;SDS011;4686;44.496;11.324;2023-05-16T00:40:51;10.70;;;8.70;;
9294;SDS011;4686;44.496;11.324;2023-05-16T00:43:20;13.80;;;9.63;;
9294;SDS011;4686;44.496;11.324;2023-05-16T00:45:47;10.20;;;9.30;;
9294;SDS011;4686;44.496;11.324;2023-05-16T00:48:14;9.87;;;8.90;;
9294;SDS011;4686;44.496;11.324;2023-05-16T00:50:41;9.83;;;8.63;;
9294;SDS011;4686;44.496;11.324;2023-05-16T00:53:09;8.60;;;7.90;;
9294;SDS011;4686;44.496;11.324;2023-05-16T00:55:36;10.67;;;9.77;;
9294;SDS011;4686;44.496;11.324;2023-05-16T00:58:03;10.87;;;9.90;;
9294;SDS011;4686;44.496;11.324;2023-05-16T01:00:32;9.13;;;8.43;;
9294;SDS011;4686;44.496;11.324;2023-05-16T01:03:00;10.63;;;9.53;;
9294;SDS011;4686;44.496;11.324;2023-05-16T01:05:27;12.57;;;11.23;;
9294;SDS011;4686;44.496;11.324;2023-05-16T01:07:55;10.57;;;9.70;;
9294;SDS011;4686;44.496;11.324;2023-05-16T01:10:22;10.90;;;9.90;;
9294;SDS011;4686;44.496;11.324;2023-05-16T01:12:52;12.80;;;10.53;;
9294;SDS011;4686;44.496;11.324;2023-05-16T01:15:24;12.50;;;9.47;;
9294;SDS011;4686;44.496;11.324;2023-05-16T01:17:54;10.80;;;9.57;;
9294;SDS011;4686;44.496;11.324;2023-05-16T01:20:27;11.03;;;9.93;;
9294;SDS011;4686;44.496;11.324;2023-05-16T01:22:58;12.43;;;9.43;;
9294;SDS011;4686;44.496;11.324;2023-05-16T01:25:31;10.97;;;9.87;;
9294;SDS011;4686;44.496;11.324;2023-05-16T01:28:01;10.53;;;9.63;;
9294;SDS011;4686;44.496;11.324;2023-05-16T01:30:31;10.87;;;9.77;;
9294;SDS011;4686;44.496;11.324;2023-05-16T01:33:00;9.73;;;8.73;;
9294;SDS011;4686;44.496;11.324;2023-05-16T01:35:27;10.47;;;9.50;;
9294;SDS011;4686;44.496;11.324;2023-05-16T01:37:56;9.77;;;8.97;;
9294;SDS011;4686;44.496;11.324;2023-05-16T01:40:26;9.27;;;8.47;;
9294;SDS011;4686;44.496;11.324;2023-05-16T01:42:56;9.57;;;8.67;;
9294;SDS011;4686;44.496;11.324;2023-05-16T01:45:25;11.70;;;9.07;;
9294;SDS011;4686;44.496;11.324;2023-05-16T01:48:06;11.03;;;9.10;;
9294;SDS011;4686;44.496;11.324;2023-05-16T01:50:35;9.93;;;9.10;;
9294;SDS011;4686;44.496;11.324;2023-05-16T01:53:05;10.43;;;9.47;;
9294;SDS011;4686;44.496;11.324;2023-05-16T01:55:37;13.40;;;9.83;;
9294;SDS011;4686;44.496;11.324;2023-05-16T01:58:05;11.23;;;10.37;;
9294;SDS011;4686;44.496;11.324;2023-05-16T02:00:34;10.80;;;9.90;;
9294;SDS011;4686;44.496;11.324;2023-05-16T02:03:02;11.17;;;9.97;;
9294;SDS011;4686;44.496;11.324;2023-05-16T02:05:29;10.77;;;9.33;;
9294;SDS011;4686;44.496;11.324;2023-05-16T02:07:56;11.00;;;10.10;;
9294;SDS011;4686;44.496;11.324;2023-05-16T02:10:24;11.30;;;10.30;;
9294;SDS011;4686;44.496;11.324;2023-05-16T02:12:52;10.87;;;9.87;;
9294;SDS011;4686;44.496;11.324;2023-05-16T02:15:19;11.23;;;10.30;;
9294;SDS011;4686;44.496;11.324;2023-05-16T02:17:47;10.77;;;9.87;;
9294;SDS011;4686;44.496;11.324;2023-05-16T02:20:15;10.23;;;9.43;;
9294;SDS011;4686;44.496;11.324;2023-05-16T02:22:42;10.77;;;9.90;;
9294;SDS011;4686;44.496;11.324;2023-05-16T02:25:12;12.50;;;10.40;;
9294;SDS011;4686;44.496;11.324;2023-05-16T02:27:40;12.30;;;11.00;;
9294;SDS011;4686;44.496;11.324;2023-05-16T02:30:08;10.97;;;9.97;;
9294;SDS011;4686;44.496;11.324;2023-05-16T02:32:35;10.83;;;9.70;;
9294;SDS011;4686;44.496;11.324;2023-05-16T02:35:05;11.20;;;10.20;;
9294;SDS011;4686;44.496;11.324;2023-05-16T02:37:32;10.77;;;9.77;;
9294;SDS011;4686;44.496;11.324;2023-05-16T02:39:59;11.37;;;10.27;;
9294;SDS011;4686;44.496;11.324;2023-05-16T02:42:27;15.90;;;13.20;;
9294;SDS011;4686;44.496;11.324;2023-05-16T02:44:56;16.30;;;14.40;;
9294;SDS011;4686;44.496;11.324;2023-05-16T02:47:23;12.23;;;10.13;;
9294;SDS011;4686;44.496;11.324;2023-05-16T02:49:50;9.63;;;8.63;;
9294;SDS011;4686;44.496;11.324;2023-05-16T02:52:19;10.03;;;7.83;;
9294;SDS011;4686;44.496;11.324;2023-05-16T02:54:47;9.80;;;6.70;;
9294;SDS011;4686;44.496;11.324;2023-05-16T02:57:15;14.03;;;10.43;;
9294;SDS011;4686;44.496;11.324;2023-05-16T02:59:42;8.03;;;7.27;;
9294;SDS011;4686;44.496;11.324;2023-05-16T03:02:09;5.47;;;4.80;;
9294;SDS011;4686;44.496;11.324;2023-05-16T03:04:37;9.43;;;6.90;;
9294;SDS011;4686;44.496;11.324;2023-05-16T03:07:04;8.03;;;5.73;;
9294;SDS011;4686;44.496;11.324;2023-05-16T03:09:33;7.40;;;4.80;;
9294;SDS011;4686;44.496;11.324;2023-05-16T03:12:00;8.53;;;5.13;;
9294;SDS011;4686;44.496;11.324;2023-05-16T03:14:27;3.90;;;3.60;;
9294;SDS011;4686;44.496;11.324;2023-05-16T03:16:55;4.00;;;3.63;;
9294;SDS011;4686;44.496;11.324;2023-05-16T03:19:22;4.53;;;4.10;;
9294;SDS011;4686;44.496;11.324;2023-05-16T03:21:50;9.60;;;6.20;;
9294;SDS011;4686;44.496;11.324;2023-05-16T03:24:17;12.90;;;9.03;;
9294;SDS011;4686;44.496;11.324;2023-05-16T03:26:48;5.00;;;4.20;;
9294;SDS011;4686;44.496;11.324;2023-05-16T03:29:16;10.77;;;7.70;;
9294;SDS011;4686;44.496;11.324;2023-05-16T03:31:43;4.33;;;3.97;;
9294;SDS011;4686;44.496;11.324;2023-05-16T03:34:11;10.33;;;7.93;;
9294;SDS011;4686;44.496;11.324;2023-05-16T03:36:38;7.77;;;6.70;;
9294;SDS011;4686;44.496;11.324;2023-05-16T03:39:05;9.03;;;6.17;;
9294;SDS011;4686;44.496;11.324;2023-05-16T03:41:33;12.13;;;9.20;;
9294;SDS011;4686;44.496;11.324;2023-05-16T03:44:03;9.80;;;7.80;;
9294;SDS011;4686;44.496;11.324;2023-05-16T03:46:30;7.30;;;6.47;;
9294;SDS011;4686;44.496;11.324;2023-05-16T03:48:57;6.03;;;3.73;;
9294;SDS011;4686;44.496;11.324;2023-05-16T03:51:25;5.77;;;3.70;;
9294;SDS011;4686;44.496;11.324;2023-05-16T03:53:52;7.17;;;3.80;;
9294;SDS011;4686;44.496;11.324;2023-05-16T03:56:20;5.73;;;5.07;;
9294;SDS011;4686;44.496;11.324;2023-05-16T03:58:47;3.97;;;3.67;;
9294;SDS011;4686;44.496;11.324;2023-05-16T04:01:16;3.73;;;3.40;;
9294;SDS011;4686;44.496;11.324;2023-05-16T04:03:43;3.50;;;3.20;;
9294;SDS011;4686;44.496;11.324;2023-05-16T04:06:10;3.30;;;3.00;;
9294;SDS011;4686;44.496;11.324;2023-05-16T04:08:38;3.67;;;3.40;;
9294;SDS011;4686;44.496;11.324;2023-05-16T04:11:05;5.10;;;3.40;;
9294;SDS011;4686;44.496;11.324;2023-05-16T04:13:32;15.30;;;11.57;;
9294;SDS011;4686;44.496;11.324;2023-05-16T04:16:00;6.67;;;4.80;;
9294;SDS011;4686;44.496;11.324;2023-05-16T04:18:28;5.40;;;3.00;;
9294;SDS011;4686;44.496;11.324;2023-05-16T04:20:56;3.30;;;3.00;;
9294;SDS011;4686;44.496;11.324;2023-05-16T04:23:24;6.87;;;3.27;;
9294;SDS011;4686;44.496;11.324;2023-05-16T04:25:51;3.20;;;2.90;;
9294;SDS011;4686;44.496;11.324;2023-05-16T04:28:19;3.40;;;3.10;;
9294;SDS011;4686;44.496;11.324;2023-05-16T04:30:49;4.27;;;3.70;;
9294;SDS011;4686;44.496;11.324;2023-05-16T04:33:16;4.87;;;3.40;;
9294;SDS011;4686;44.496;11.324;2023-05-16T04:35:45;5.80;;;3.70;;
9294;SDS011;4686;44.496;11.324;2023-05-16T04:38:12;4.50;;;4.20;;
9294;SDS011;4686;44.496;11.324;2023-05-16T04:40:40;5.03;;;4.03;;
9294;SDS011;4686;44.496;11.324;2023-05-16T04:43:07;3.83;;;3.53;;
9294;SDS011;4686;44.496;11.324;2023-05-16T04:45:34;5.30;;;3.90;;
9294;SDS011;4686;44.496;11.324;2023-05-16T04:48:02;4.63;;;4.23;;
9294;SDS011;4686;44.496;11.324;2023-05-16T04:50:29;4.43;;;4.07;;
9294;SDS011;4686;44.496;11.324;2023-05-16T04:52:58;4.47;;;3.77;;
9294;SDS011;4686;44.496;11.324;2023-05-16T04:55:25;4.10;;;3.80;;
9294;SDS011;4686;44.496;11.324;2023-05-16T04:57:53;6.10;;;4.50;;
9294;SDS011;4686;44.496;11.324;2023-05-16T05:00:20;5.03;;;4.63;;
9294;SDS011;4686;44.496;11.324;2023-05-16T05:02:48;5.03;;;4.70;;
9294;SDS011;4686;44.496;11.324;2023-05-16T05:05:15;4.87;;;4.57;;
9294;SDS011;4686;44.496;11.324;2023-05-16T05:07:42;5.07;;;4.67;;
9294;SDS011;4686;44.496;11.324;2023-05-16T05:10:11;6.03;;;4.80;;
9294;SDS011;4686;44.496;11.324;2023-05-16T05:12:38;5.43;;;4.90;;
9294;SDS011;4686;44.496;11.324;2023-05-16T05:15:06;6.73;;;5.70;;
9294;SDS011;4686;44.496;11.324;2023-05-16T05:17:33;5.93;;;5.47;;
9294;SDS011;4686;44.496;11.324;2023-05-16T05:20:01;6.87;;;5.10;;
9294;SDS011;4686;44.496;11.324;2023-05-16T05:22:30;5.70;;;5.20;;
9294;SDS011;4686;44.496;11.324;2023-05-16T05:24:58;6.47;;;3.97;;
9294;SDS011;4686;44.496;11.324;2023-05-16T05:27:26;5.83;;;5.43;;
9294;SDS011;4686;44.496;11.324;2023-05-16T05:29:53;8.37;;;6.40;;
9294;SDS011;4686;44.496;11.324;2023-05-16T05:32:21;5.80;;;5.30;;
9294;SDS011;4686;44.496;11.324;2023-05-16T05:34:48;6.20;;;5.37;;
9294;SDS011;4686;44.496;11.324;2023-05-16T05:37:16;5.97;;;5.47;;
9294;SDS011;4686;44.496;11.324;2023-05-16T05:39:43;6.10;;;5.50;;
9294;SDS011;4686;44.496;11.324;2023-05-16T05:42:11;5.37;;;4.90;;
9294;SDS011;4686;44.496;11.324;2023-05-16T05:44:39;5.90;;;5.00;;
9294;SDS011;4686;44.496;11.324;2023-05-16T05:47:06;8.17;;;5.40;;
9294;SDS011;4686;44.496;11.324;2023-05-16T05:49:34;6.03;;;5.40;;
9294;SDS011;4686;44.496;11.324;2023-05-16T05:52:01;6.90;;;6.20;;
9294;SDS011;4686;44.496;11.324;2023-05-16T05:54:29;9.37;;;6.80;;
9294;SDS011;4686;44.496;11.324;2023-05-16T05:56:56;7.80;;;6.43;;
9294;SDS011;4686;44.496;11.324;2023-05-16T05:59:23;10.50;;;7.30;;
9294;SDS011;4686;44.496;11.324;2023-05-16T06:01:52;8.37;;;7.60;;
9294;SDS011;4686;44.496;11.324;2023-05-16T06:04:20;8.90;;;7.60;;
9294;SDS011;4686;44.496;11.324;2023-05-16T06:06:48;14.93;;;7.50;;
9294;SDS011;4686;44.496;11.324;2023-05-16T06:09:15;10.43;;;9.33;;
9294;SDS011;4686;44.496;11.324;2023-05-16T06:11:42;7.57;;;6.87;;
9294;SDS011;4686;44.496;11.324;2023-05-16T06:14:10;12.00;;;10.00;;
9294;SDS011;4686;44.496;11.324;2023-05-16T06:16:37;8.73;;;7.17;;
9294;SDS011;4686;44.496;11.324;2023-05-16T06:19:06;17.93;;;8.40;;
9294;SDS011;4686;44.496;11.324;2023-05-16T06:21:33;7.67;;;7.00;;
9294;SDS011;4686;44.496;11.324;2023-05-16T06:24:01;12.67;;;10.90;;
9294;SDS011;4686;44.496;11.324;2023-05-16T06:26:28;8.50;;;7.00;;
9294;SDS011;4686;44.496;11.324;2023-05-16T06:28:55;7.50;;;6.70;;
9294;SDS011;4686;44.496;11.324;2023-05-16T06:31:22;7.50;;;6.33;;
9294;SDS011;4686;44.496;11.324;2023-05-16T06:33:49;7.23;;;6.33;;
9294;SDS011;4686;44.496;11.324;2023-05-16T06:36:18;12.13;;;8.03;;
9294;SDS011;4686;44.496;11.324;2023-05-16T06:38:45;8.83;;;6.60;;
9294;SDS011;4686;44.496;11.324;2023-05-16T06:41:12;8.30;;;7.50;;
9294;SDS011;4686;44.496;11.324;2023-05-16T06:43:40;12.13;;;6.70;;
9294;SDS011;4686;44.496;11.324;2023-05-16T06:46:07;9.37;;;7.23;;
9294;SDS011;4686;44.496;11.324;2023-05-16T06:48:34;2.30;;;2.20;;
9294;SDS011;4686;44.496;11.324;2023-05-16T06:51:02;13.83;;;11.20;;
9294;SDS011;4686;44.496;11.324;2023-05-16T06:53:30;13.27;;;10.50;;
9294;SDS011;4686;44.496;11.324;2023-05-16T06:55:57;19.00;;;14.23;;
9294;SDS011;4686;44.496;11.324;2023-05-16T06:58:24;20.73;;;16.20;;
9294;SDS011;4686;44.496;11.324;2023-05-16T07:00:52;15.77;;;11.13;;
9294;SDS011;4686;44.496;11.324;2023-05-16T07:03:19;9.30;;;8.40;;
9294;SDS011;4686;44.496;11.324;2023-05-16T07:05:46;11.83;;;9.33;;
9294;SDS011;4686;44.496;11.324;2023-05-16T07:08:17;9.30;;;8.20;;
9294;SDS011;4686;44.496;11.324;2023-05-16T07:10:46;10.17;;;8.07;;
9294;SDS011;4686;44.496;11.324;2023-05-16T07:13:13;9.20;;;7.90;;
9294;SDS011;4686;44.496;11.324;2023-05-16T07:15:41;8.70;;;7.90;;
9294;SDS011;4686;44.496;11.324;2023-05-16T07:18:08;10.00;;;8.80;;
9294;SDS011;4686;44.496;11.324;2023-05-16T07:20:35;10.03;;;8.23;;
9294;SDS011;4686;44.496;11.324;2023-05-16T07:23:02;12.50;;;8.30;;
9294;SDS011;4686;44.496;11.324;2023-05-16T07:25:30;9.50;;;7.93;;
9294;SDS011;4686;44.496;11.324;2023-05-16T07:27:59;12.90;;;9.47;;
9294;SDS011;4686;44.496;11.324;2023-05-16T07:30:26;9.93;;;8.97;;
9294;SDS011;4686;44.496;11.324;2023-05-16T07:32:53;10.90;;;8.73;;
9294;SDS011;4686;44.496;11.324;2023-05-16T07:35:20;9.00;;;8.20;;
9294;SDS011;4686;44.496;11.324;2023-05-16T07:37:48;9.60;;;8.60;;
9294;SDS011;4686;44.496;11.324;2023-05-16T07:40:15;11.47;;;8.73;;
9294;SDS011;4686;44.496;11.324;2023-05-16T07:42:45;11.80;;;9.67;;
9294;SDS011;4686;44.496;11.324;2023-05-16T07:45:13;10.27;;;7.67;;
9294;SDS011;4686;44.496;11.324;2023-05-16T07:47:40;11.30;;;10.10;;
9294;SDS011;4686;44.496;11.324;2023-05-16T07:50:09;13.30;;;10.20;;
9294;SDS011;4686;44.496;11.324;2023-05-16T07:52:36;10.03;;;9.13;;
9294;SDS011;4686;44.496;11.324;2023-05-16T07:55:04;10.00;;;9.00;;
9294;SDS011;4686;44.496;11.324;2023-05-16T07:57:31;12.30;;;9.07;;
9294;SDS011;4686;44.496;11.324;2023-05-16T07:59:58;10.67;;;9.57;;
9294;SDS011;4686;44.496;11.324;2023-05-16T08:02:26;10.23;;;9.00;;
9294;SDS011;4686;44.496;11.324;2023-05-16T08:04:54;11.00;;;9.90;;
9294;SDS011;4686;44.496;11.324;2023-05-16T08:07:22;10.70;;;9.60;;
9294;SDS011;4686;44.496;11.324;2023-05-16T08:09:49;11.80;;;9.87;;
9294;SDS011;4686;44.496;11.324;2023-05-16T08:12:16;12.53;;;9.90;;
9294;SDS011;4686;44.496;11.324;2023-05-16T08:14:44;13.47;;;11.40;;
9294;SDS011;4686;44.496;11.324;2023-05-16T08:17:11;12.60;;;11.20;;
9294;SDS011;4686;44.496;11.324;2023-05-16T08:19:39;11.93;;;10.47;;
9294;SDS011;4686;44.496;11.324;2023-05-16T08:22:08;12.43;;;11.13;;
9294;SDS011;4686;44.496;11.324;2023-05-16T08:24:40;10.90;;;9.87;;
9294;SDS011;4686;44.496;11.324;2023-05-16T08:27:08;11.77;;;10.17;;
9294;SDS011;4686;44.496;11.324;2023-05-16T08:29:39;13.93;;;12.63;;
9294;SDS011;4686;44.496;11.324;2023-05-16T08:32:07;13.93;;;12.53;;
9294;SDS011;4686;44.496;11.324;2023-05-16T08:34:35;11.50;;;10.40;;
9294;SDS011;4686;44.496;11.324;2023-05-16T08:37:03;11.13;;;9.50;;
9294;SDS011;4686;44.496;11.324;2023-05-16T08:39:31;11.40;;;10.30;;
9294;SDS011;4686;44.496;11.324;2023-05-16T08:41:58;10.60;;;9.60;;
9294;SDS011;4686;44.496;11.324;2023-05-16T08:44:27;11.13;;;9.93;;
9294;SDS011;4686;44.496;11.324;2023-05-16T08:46:54;10.93;;;10.07;;
9294;SDS011;4686;44.496;11.324;2023-05-16T08:49:22;11.00;;;9.93;;
9294;SDS011;4686;44.496;11.324;2023-05-16T08:51:55;10.83;;;9.87;;
9294;SDS011;4686;44.496;11.324;2023-05-16T08:54:24;11.50;;;10.40;;
9294;SDS011;4686;44.496;11.324;2023-05-16T08:56:52;11.20;;;9.80;;
9294;SDS011;4686;44.496;11.324;2023-05-16T08:59:20;10.30;;;9.30;;
9294;SDS011;4686;44.496;11.324;2023-05-16T09:01:47;9.87;;;9.00;;
9294;SDS011;4686;44.496;11.324;2023-05-16T09:04:15;9.37;;;8.67;;
9294;SDS011;4686;44.496;11.324;2023-05-16T09:06:43;9.20;;;8.27;;
9294;SDS011;4686;44.496;11.324;2023-05-16T09:09:10;10.30;;;9.30;;
9294;SDS011;4686;44.496;11.324;2023-05-16T09:11:39;9.20;;;8.40;;
9294;SDS011;4686;44.496;11.324;2023-05-16T09:14:08;9.40;;;8.60;;
9294;SDS011;4686;44.496;11.324;2023-05-16T09:16:35;10.90;;;9.87;;
9294;SDS011;4686;44.496;11.324;2023-05-16T09:19:03;9.40;;;8.53;;
9294;SDS011;4686;44.496;11.324;2023-05-16T09:21:31;11.10;;;9.80;;
9294;SDS011;4686;44.496;11.324;2023-05-16T09:24:01;10.07;;;9.17;;
9294;SDS011;4686;44.496;11.324;2023-05-16T09:26:28;10.90;;;8.57;;
9294;SDS011;4686;44.496;11.324;2023-05-16T09:28:57;11.00;;;10.00;;
9294;SDS011;4686;44.496;11.324;2023-05-16T09:31:27;8.33;;;7.73;;
9294;SDS011;4686;44.496;11.324;2023-05-16T09:34:00;9.00;;;8.10;;
9294;SDS011;4686;44.496;11.324;2023-05-16T09:36:28;10.23;;;9.33;;
9294;SDS011;4686;44.496;11.324;2023-05-16T09:38:57;10.87;;;9.77;;
9294;SDS011;4686;44.496;11.324;2023-05-16T09:41:25;9.60;;;8.33;;
9294;SDS011;4686;44.496;11.324;2023-05-16T09:43:53;8.57;;;7.77;;
9294;SDS011;4686;44.496;11.324;2023-05-16T09:46:25;12.83;;;11.47;;
9294;SDS011;4686;44.496;11.324;2023-05-16T09:48:52;7.30;;;6.80;;
9294;SDS011;4686;44.496;11.324;2023-05-16T09:51:21;7.20;;;6.60;;
9294;SDS011;4686;44.496;11.324;2023-05-16T09:53:49;9.40;;;8.33;;
9294;SDS011;4686;44.496;11.324;2023-05-16T09:56:16;14.10;;;12.53;;
9294;SDS011;4686;44.496;11.324;2023-05-16T09:58:50;6.30;;;5.90;;
9294;SDS011;4686;44.496;11.324;2023-05-16T10:01:18;11.40;;;9.33;;
9294;SDS011;4686;44.496;11.324;2023-05-16T10:03:48;10.33;;;8.70;;
9294;SDS011;4686;44.496;11.324;2023-05-16T10:06:16;10.30;;;9.20;;
9294;SDS011;4686;44.496;11.324;2023-05-16T10:08:44;14.40;;;12.90;;
9294;SDS011;4686;44.496;11.324;2023-05-16T10:11:12;9.90;;;8.90;;
9294;SDS011;4686;44.496;11.324;2023-05-16T10:13:41;21.97;;;18.13;;
9294;SDS011;4686;44.496;11.324;2023-05-16T10:16:13;17.87;;;11.50;;
9294;SDS011;4686;44.496;11.324;2023-05-16T10:18:40;24.30;;;18.43;;
9294;SDS011;4686;44.496;11.324;2023-05-16T10:21:12;15.47;;;13.43;;
9294;SDS011;4686;44.496;11.324;2023-05-16T10:23:41;10.60;;;9.70;;
9294;SDS011;4686;44.496;11.324;2023-05-16T10:26:08;8.23;;;7.43;;
9294;SDS011;4686;44.496;11.324;2023-05-16T10:28:38;12.90;;;11.47;;
9294;SDS011;4686;44.496;11.324;2023-05-16T10:31:06;9.93;;;8.73;;
9294;SDS011;4686;44.496;11.324;2023-05-16T10:33:33;13.33;;;11.40;;
9294;SDS011;4686;44.496;11.324;2023-05-16T10:36:01;7.67;;;7.03;;
9294;SDS011;4686;44.496;11.324;2023-05-16T10:38:30;7.93;;;7.33;;
9294;SDS011;4686;44.496;11.324;2023-05-16T10:40:58;7.17;;;6.70;;
9294;SDS011;4686;44.496;11.324;2023-05-16T10:43:26;7.83;;;7.23;;
9294;SDS011;4686;44.496;11.324;2023-05-16T10:45:54;9.77;;;7.10;;
9294;SDS011;4686;44.496;11.324;2023-05-16T10:48:29;7.97;;;7.30;;
9294;SDS011;4686;44.496;11.324;2023-05-16T10:50:56;7.00;;;6.50;;
9294;SDS011;4686;44.496;11.324;2023-05-16T10:53:28;8.00;;;6.70;;
9294;SDS011;4686;44.496;11.324;2023-05-16T10:56:10;7.33;;;6.70;;
9294;SDS011;4686;44.496;11.324;2023-05-16T10:58:39;8.60;;;7.80;;
9294;SDS011;4686;44.496;11.324;2023-05-16T11:01:13;8.00;;;7.30;;
9294;SDS011;4686;44.496;11.324;2023-05-16T11:06:24;8.90;;;7.23;;
9294;SDS011;4686;44.496;11.324;2023-05-16T11:08:56;7.83;;;7.03;;
9294;SDS011;4686;44.496;11.324;2023-05-16T11:11:38;8.37;;;7.63;;
9294;SDS011;4686;44.496;11.324;2023-05-16T11:14:06;7.37;;;6.77;;
9294;SDS011;4686;44.496;11.324;2023-05-16T11:16:33;9.67;;;7.30;;
9294;SDS011;4686;44.496;11.324;2023-05-16T11:19:04;9.13;;;7.80;;
9294;SDS011;4686;44.496;11.324;2023-05-16T11:24:28;8.30;;;7.60;;
9294;SDS011;4686;44.496;11.324;2023-05-16T11:26:57;9.30;;;8.23;;
9294;SDS011;4686;44.496;11.324;2023-05-16T11:29:26;8.63;;;7.60;;
9294;SDS011;4686;44.496;11.324;2023-05-16T11:31:54;10.50;;;9.40;;
9294;SDS011;4686;44.496;11.324;2023-05-16T11:34:21;10.60;;;9.50;;
9294;SDS011;4686;44.496;11.324;2023-05-16T11:36:50;9.90;;;8.90;;
9294;SDS011;4686;44.496;11.324;2023-05-16T11:39:18;10.00;;;9.20;;
9294;SDS011;4686;44.496;11.324;2023-05-16T11:41:45;9.63;;;8.80;;
9294;SDS011;4686;44.496;11.324;2023-05-16T11:44:14;10.73;;;9.73;;
9294;SDS011;4686;44.496;11.324;2023-05-16T11:46:41;10.77;;;9.80;;
9294;SDS011;4686;44.496;11.324;2023-05-16T11:49:08;9.80;;;9.00;;
9294;SDS011;4686;44.496;11.324;2023-05-16T11:51:36;10.67;;;9.73;;
9294;SDS011;4686;44.496;11.324;2023-05-16T11:54:04;13.33;;;10.33;;
9294;SDS011;4686;44.496;11.324;2023-05-16T11:56:31;11.63;;;10.53;;
9294;SDS011;4686;44.496;11.324;2023-05-16T11:59:01;10.77;;;9.60;;
9294;SDS011;4686;44.496;11.324;2023-05-16T12:01:32;9.70;;;8.80;;
9294;SDS011;4686;44.496;11.324;2023-05-16T12:03:59;11.83;;;10.07;;
9294;SDS011;4686;44.496;11.324;2023-05-16T12:06:26;11.30;;;10.20;;
9294;SDS011;4686;44.496;11.324;2023-05-16T12:08:55;10.97;;;8.87;;
9294;SDS011;4686;44.496;11.324;2023-05-16T12:11:23;10.23;;;8.77;;
9294;SDS011;4686;44.496;11.324;2023-05-16T12:13:51;8.80;;;7.90;;
9294;SDS011;4686;44.496;11.324;2023-05-16T12:16:18;11.70;;;7.80;;
9294;SDS011;4686;44.496;11.324;2023-05-16T12:18:47;8.37;;;7.77;;
9294;SDS011;4686;44.496;11.324;2023-05-16T12:21:15;9.10;;;8.20;;
9294;SDS011;4686;44.496;11.324;2023-05-16T12:23:42;9.60;;;8.67;;
9294;SDS011;4686;44.496;11.324;2023-05-16T12:26:10;9.47;;;8.50;;
9294;SDS011;4686;44.496;11.324;2023-05-16T12:28:37;7.93;;;7.27;;
9294;SDS011;4686;44.496;11.324;2023-05-16T12:31:10;10.60;;;6.80;;
9294;SDS011;4686;44.496;11.324;2023-05-16T12:33:38;8.80;;;7.43;;
9294;SDS011;4686;44.496;11.324;2023-05-16T12:36:11;9.70;;;8.70;;
9294;SDS011;4686;44.496;11.324;2023-05-16T12:38:39;9.33;;;8.33;;
9294;SDS011;4686;44.496;11.324;2023-05-16T12:41:06;9.40;;;8.50;;
9294;SDS011;4686;44.496;11.324;2023-05-16T12:43:34;8.30;;;7.60;;
9294;SDS011;4686;44.496;11.324;2023-05-16T12:46:02;7.73;;;6.97;;
9294;SDS011;4686;44.496;11.324;2023-05-16T12:48:36;9.10;;;8.10;;
9294;SDS011;4686;44.496;11.324;2023-05-16T12:51:11;11.50;;;7.43;;
9294;SDS011;4686;44.496;11.324;2023-05-16T12:53:42;7.27;;;6.57;;
9294;SDS011;4686;44.496;11.324;2023-05-16T12:56:12;6.60;;;6.00;;
9294;SDS011;4686;44.496;11.324;2023-05-16T12:58:42;10.63;;;7.80;;
9294;SDS011;4686;44.496;11.324;2023-05-16T13:01:12;8.40;;;7.70;;
9294;SDS011;4686;44.496;11.324;2023-05-16T13:03:40;7.63;;;6.80;;
9294;SDS011;4686;44.496;11.324;2023-05-16T13:06:07;16.90;;;9.27;;
9294;SDS011;4686;44.496;11.324;2023-05-16T13:08:38;12.03;;;7.77;;
9294;SDS011;4686;44.496;11.324;2023-05-16T13:11:06;8.43;;;6.90;;
9294;SDS011;4686;44.496;11.324;2023-05-16T13:13:34;9.37;;;8.47;;
9294;SDS011;4686;44.496;11.324;2023-05-16T13:16:03;9.70;;;8.70;;
9294;SDS011;4686;44.496;11.324;2023-05-16T13:18:30;11.53;;;8.63;;
9294;SDS011;4686;44.496;11.324;2023-05-16T13:20:58;9.90;;;8.43;;
9294;SDS011;4686;44.496;11.324;2023-05-16T13:23:29;9.97;;;8.90;;
9294;SDS011;4686;44.496;11.324;2023-05-16T13:26:06;10.90;;;8.80;;
9294;SDS011;4686;44.496;11.324;2023-05-16T13:28:34;9.33;;;8.53;;
9294;SDS011;4686;44.496;11.324;2023-05-16T13:31:02;10.13;;;9.20;;
9294;SDS011;4686;44.496;11.324;2023-05-16T13:33:30;10.37;;;9.37;;
9294;SDS011;4686;44.496;11.324;2023-05-16T13:35:57;11.93;;;9.80;;
9294;SDS011;4686;44.496;11.324;2023-05-16T13:38:36;16.13;;;11.80;;
9294;SDS011;4686;44.496;11.324;2023-05-16T13:41:06;10.87;;;9.80;;
9294;SDS011;4686;44.496;11.324;2023-05-16T13:43:34;13.63;;;11.97;;
9294;SDS011;4686;44.496;11.324;2023-05-16T13:46:01;12.30;;;11.20;;
9294;SDS011;4686;44.496;11.324;2023-05-16T13:48:30;17.03;;;15.00;;
9294;SDS011;4686;44.496;11.324;2023-05-16T13:51:00;16.90;;;13.70;;
9294;SDS011;4686;44.496;11.324;2023-05-16T13:53:28;16.53;;;11.90;;
9294;SDS011;4686;44.496;11.324;2023-05-16T13:55:55;15.73;;;13.83;;
9294;SDS011;4686;44.496;11.324;2023-05-16T13:58:24;11.60;;;10.40;;
9294;SDS011;4686;44.496;11.324;2023-05-16T14:00:54;22.83;;;18.70;;
9294;SDS011;4686;44.496;11.324;2023-05-16T14:03:21;15.87;;;14.20;;
9294;SDS011;4686;44.496;11.324;2023-05-16T14:05:48;8.87;;;7.97;;
9294;SDS011;4686;44.496;11.324;2023-05-16T14:08:16;11.43;;;10.43;;
9294;SDS011;4686;44.496;11.324;2023-05-16T14:10:43;16.97;;;10.83;;
9294;SDS011;4686;44.496;11.324;2023-05-16T14:13:10;13.27;;;11.77;;
9294;SDS011;4686;44.496;11.324;2023-05-16T14:15:39;17.60;;;13.60;;
9294;SDS011;4686;44.496;11.324;2023-05-16T14:18:06;8.67;;;7.80;;
9294;SDS011;4686;44.496;11.324;2023-05-16T14:20:34;9.93;;;7.23;;
9294;SDS011;4686;44.496;11.324;2023-05-16T14:23:01;8.40;;;7.60;;
9294;SDS011;4686;44.496;11.324;2023-05-16T14:25:29;6.30;;;5.80;;
9294;SDS011;4686;44.496;11.324;2023-05-16T14:27:56;7.60;;;6.40;;
9294;SDS011;4686;44.496;11.324;2023-05-16T14:30:23;11.17;;;8.33;;
9294;SDS011;4686;44.496;11.324;2023-05-16T14:32:52;12.67;;;9.17;;
9294;SDS011;4686;44.496;11.324;2023-05-16T14:35:20;9.53;;;7.83;;
9294;SDS011;4686;44.496;11.324;2023-05-16T14:37:47;7.30;;;6.60;;
9294;SDS011;4686;44.496;11.324;2023-05-16T14:40:14;7.33;;;6.73;;
9294;SDS011;4686;44.496;11.324;2023-05-16T14:42:41;17.90;;;12.87;;
9294;SDS011;4686;44.496;11.324;2023-05-16T14:45:13;11.60;;;8.27;;
9294;SDS011;4686;44.496;11.324;2023-05-16T14:47:41;9.10;;;7.27;;
9294;SDS011;4686;44.496;11.324;2023-05-16T14:50:11;7.87;;;7.07;;
9294;SDS011;4686;44.496;11.324;2023-05-16T14:52:38;9.70;;;8.90;;
9294;SDS011;4686;44.496;11.324;2023-05-16T14:55:05;12.23;;;8.00;;
9294;SDS011;4686;44.496;11.324;2023-05-16T14:57:34;9.00;;;7.60;;
9294;SDS011;4686;44.496;11.324;2023-05-16T15:00:01;10.13;;;8.37;;
9294;SDS011;4686;44.496;11.324;2023-05-16T15:02:29;13.50;;;9.13;;
9294;SDS011;4686;44.496;11.324;2023-05-16T15:04:56;31.33;;;21.33;;